sensor_id;sensor_type;location;lat;lon;timestamp;P1;durP1;ratioP1;P2;durP2;ratioP2
3271;SDS011;1648;50.022;8.424;2023-09-18T00:10:35;10.17;;;6.70;;
3271;SDS011;1648;50.022;8.424;2023-09-18T00:25:41;12.33;;;5.90;;
3271;SDS011;1648;50.022;8.424;2023-09-18T00:40:44;14.50;;;7.57;;
3271;SDS011;1648;50.022;8.424;2023-09-18T00:55:55;14.13;;;6.03;;
3271;SDS011;1648;50.022;8.424;2023-09-18T01:11:06;10.63;;;6.37;;
3271;SDS011;1648;50.022;8.424;2023-09-18T01:26:18;9.30;;;5.87;;
3271;SDS011;1648;50.022;8.424;2023-09-18T01:41:27;8.57;;;6.03;;
3271;SDS011;1648;50.022;8.424;2023-09-18T01:56:31;12.30;;;6.77;;
3271;SDS011;1648;50.022;8.424;2023-09-18T02:11:43;18.60;;;9.10;;
3271;SDS011;1648;50.022;8.424;2023-09-18T02:26:47;11.97;;;7.80;;
3271;SDS011;1648;50.022;8.424;2023-09-18T02:41:53;11.10;;;7.87;;
3271;SDS011;1648;50.022;8.424;2023-09-18T02:56:57;15.33;;;7.60;;
3271;SDS011;1648;50.022;8.424;2023-09-18T03:12:06;12.90;;;7.20;;
3271;SDS011;1648;50.022;8.424;2023-09-18T03:27:19;12.73;;;7.67;;
3271;SDS011;1648;50.022;8.424;2023-09-18T03:42:26;11.93;;;7.83;;
3271;SDS011;1648;50.022;8.424;2023-09-18T03:57:41;15.77;;;8.47;;
3271;SDS011;1648;50.022;8.424;2023-09-18T04:12:45;11.90;;;9.07;;
3271;SDS011;1648;50.022;8.424;2023-09-18T04:27:49;14.27;;;8.43;;
3271;SDS011;1648;50.022;8.424;2023-09-18T04:42:55;13.70;;;9.20;;
3271;SDS011;1648;50.022;8.424;2023-09-18T04:57:58;20.70;;;10.67;;
3271;SDS011;1648;50.022;8.424;2023-09-18T05:13:04;13.10;;;8.87;;
3271;SDS011;1648;50.022;8.424;2023-09-18T05:28:07;14.33;;;7.80;;
3271;SDS011;1648;50.022;8.424;2023-09-18T05:43:14;9.20;;;6.30;;
3271;SDS011;1648;50.022;8.424;2023-09-18T05:58:17;13.60;;;6.27;;
3271;SDS011;1648;50.022;8.424;2023-09-18T06:13:23;11.43;;;5.57;;
3271;SDS011;1648;50.022;8.424;2023-09-18T06:28:26;13.77;;;5.43;;
3271;SDS011;1648;50.022;8.424;2023-09-18T06:59:41;17.23;;;6.07;;
3271;SDS011;1648;50.022;8.424;2023-09-18T07:14:45;11.20;;;5.30;;
3271;SDS011;1648;50.022;8.424;2023-09-18T07:29:51;15.00;;;4.60;;
3271;SDS011;1648;50.022;8.424;2023-09-18T07:44:55;13.77;;;4.50;;
3271;SDS011;1648;50.022;8.424;2023-09-18T08:00:01;17.73;;;5.47;;
3271;SDS011;1648;50.022;8.424;2023-09-18T08:15:15;10.03;;;4.00;;
3271;SDS011;1648;50.022;8.424;2023-09-18T08:30:19;9.20;;;3.93;;
3271;SDS011;1648;50.022;8.424;2023-09-18T08:45:26;12.47;;;3.73;;
3271;SDS011;1648;50.022;8.424;2023-09-18T09:00:35;13.70;;;3.93;;
3271;SDS011;1648;50.022;8.424;2023-09-18T09:15:45;4.83;;;3.20;;
3271;SDS011;1648;50.022;8.424;2023-09-18T09:30:49;4.43;;;2.20;;
3271;SDS011;1648;50.022;8.424;2023-09-18T09:46:05;5.00;;;2.07;;
3271;SDS011;1648;50.022;8.424;2023-09-18T10:01:11;5.47;;;1.60;;
3271;SDS011;1648;50.022;8.424;2023-09-18T10:16:18;4.77;;;1.47;;
3271;SDS011;1648;50.022;8.424;2023-09-18T10:31:21;4.77;;;1.80;;
3271;SDS011;1648;50.022;8.424;2023-09-18T10:46:25;3.40;;;1.77;;
3271;SDS011;1648;50.022;8.424;2023-09-18T11:01:29;6.03;;;1.60;;
3271;SDS011;1648;50.022;8.424;2023-09-18T11:16:35;2.63;;;1.43;;
3271;SDS011;1648;50.022;8.424;2023-09-18T11:31:44;4.20;;;1.60;;
3271;SDS011;1648;50.022;8.424;2023-09-18T11:46:51;3.77;;;1.90;;
3271;SDS011;1648;50.022;8.424;2023-09-18T12:01:55;4.67;;;1.80;;
3271;SDS011;1648;50.022;8.424;2023-09-18T12:17:01;3.83;;;1.77;;
3271;SDS011;1648;50.022;8.424;2023-09-18T12:32:08;5.30;;;1.60;;
3271;SDS011;1648;50.022;8.424;2023-09-18T12:47:14;2.20;;;1.70;;
3271;SDS011;1648;50.022;8.424;2023-09-18T13:02:21;4.40;;;2.60;;
3271;SDS011;1648;50.022;8.424;2023-09-18T13:17:37;2.67;;;1.70;;
3271;SDS011;1648;50.022;8.424;2023-09-18T13:32:41;8.43;;;2.03;;
3271;SDS011;1648;50.022;8.424;2023-09-18T13:47:51;4.67;;;2.17;;
3271;SDS011;1648;50.022;8.424;2023-09-18T14:02:54;6.60;;;2.70;;
3271;SDS011;1648;50.022;8.424;2023-09-18T14:18:00;2.33;;;2.13;;
3271;SDS011;1648;50.022;8.424;2023-09-18T14:33:11;6.50;;;2.90;;
3271;SDS011;1648;50.022;8.424;2023-09-18T14:48:14;4.73;;;1.87;;
3271;SDS011;1648;50.022;8.424;2023-09-18T15:03:23;7.90;;;2.63;;
3271;SDS011;1648;50.022;8.424;2023-09-18T15:18:26;6.30;;;2.33;;
3271;SDS011;1648;50.022;8.424;2023-09-18T15:33:30;8.47;;;3.47;;
3271;SDS011;1648;50.022;8.424;2023-09-18T15:48:35;3.60;;;2.20;;
3271;SDS011;1648;50.022;8.424;2023-09-18T16:03:41;8.00;;;2.87;;
3271;SDS011;1648;50.022;8.424;2023-09-18T16:18:45;10.70;;;3.00;;
3271;SDS011;1648;50.022;8.424;2023-09-18T16:33:54;4.90;;;2.53;;
3271;SDS011;1648;50.022;8.424;2023-09-18T16:49:17;8.03;;;3.03;;
3271;SDS011;1648;50.022;8.424;2023-09-18T17:04:23;4.87;;;2.70;;
3271;SDS011;1648;50.022;8.424;2023-09-18T17:19:36;7.80;;;4.27;;
3271;SDS011;1648;50.022;8.424;2023-09-18T17:34:40;7.20;;;2.77;;
3271;SDS011;1648;50.022;8.424;2023-09-18T17:49:44;8.53;;;2.97;;
3271;SDS011;1648;50.022;8.424;2023-09-18T18:04:49;6.80;;;4.73;;
3271;SDS011;1648;50.022;8.424;2023-09-18T18:19:55;8.67;;;3.17;;
3271;SDS011;1648;50.022;8.424;2023-09-18T18:35:04;3.03;;;2.27;;
3271;SDS011;1648;50.022;8.424;2023-09-18T18:50:09;4.77;;;2.30;;
3271;SDS011;1648;50.022;8.424;2023-09-18T19:05:13;4.17;;;1.93;;
3271;SDS011;1648;50.022;8.424;2023-09-18T19:20:17;8.27;;;5.80;;
3271;SDS011;1648;50.022;8.424;2023-09-18T19:35:24;24.57;;;15.20;;
3271;SDS011;1648;50.022;8.424;2023-09-18T19:50:28;3.67;;;1.70;;
3271;SDS011;1648;50.022;8.424;2023-09-18T20:05:34;2.00;;;1.60;;
3271;SDS011;1648;50.022;8.424;2023-09-18T20:20:38;4.03;;;1.33;;
3271;SDS011;1648;50.022;8.424;2023-09-18T20:35:59;8.77;;;6.43;;
3271;SDS011;1648;50.022;8.424;2023-09-18T20:51:06;2.20;;;0.90;;
3271;SDS011;1648;50.022;8.424;2023-09-18T21:06:09;2.10;;;0.93;;
3271;SDS011;1648;50.022;8.424;2023-09-18T21:21:17;2.13;;;1.30;;
3271;SDS011;1648;50.022;8.424;2023-09-18T21:36:22;2.03;;;1.30;;
3271;SDS011;1648;50.022;8.424;2023-09-18T21:51:27;4.37;;;1.30;;
3271;SDS011;1648;50.022;8.424;2023-09-18T22:06:30;2.77;;;1.40;;
3271;SDS011;1648;50.022;8.424;2023-09-18T22:21:39;3.00;;;1.50;;
3271;SDS011;1648;50.022;8.424;2023-09-18T22:36:50;2.80;;;1.80;;
3271;SDS011;1648;50.022;8.424;2023-09-18T23:07:33;6.73;;;2.30;;
3271;SDS011;1648;50.022;8.424;2023-09-18T23:22:46;3.93;;;2.00;;
3271;SDS011;1648;50.022;8.424;2023-09-18T23:37:59;2.70;;;1.80;;
3271;SDS011;1648;50.022;8.424;2023-09-18T23:53:03;5.07;;;2.17;;
